createdAt,value
2019-02-24T00:01:57.155Z,4.77
2019-02-24T00:04:25.989Z,5.10
2019-02-24T00:06:54.834Z,6.70
2019-02-24T00:09:23.702Z,4.90
2019-02-24T00:11:52.534Z,4.70
2019-02-24T00:14:21.403Z,7.03
2019-02-24T00:16:50.284Z,4.97
2019-02-24T00:19:19.098Z,4.97
2019-02-24T00:21:47.961Z,4.13
2019-02-24T00:24:16.827Z,7.10
2019-02-24T00:26:45.659Z,6.43
2019-02-24T00:29:14.527Z,4.53
2019-02-24T00:31:43.391Z,4.87
2019-02-24T00:34:12.222Z,5.53
2019-02-24T00:36:41.100Z,5.40
2019-02-24T00:39:09.976Z,3.87
2019-02-24T00:41:38.804Z,5.57
2019-02-24T00:44:07.669Z,4.17
2019-02-24T00:46:36.530Z,4.40
2019-02-24T00:49:05.352Z,3.87
2019-02-24T00:51:34.224Z,6.33
2019-02-24T00:54:03.088Z,5.07
2019-02-24T00:56:31.915Z,5.37
2019-02-24T00:59:00.767Z,3.90
2019-02-24T01:01:29.638Z,4.03
2019-02-24T01:03:58.482Z,3.27
2019-02-24T01:06:27.341Z,3.20
2019-02-24T01:08:56.203Z,3.47
2019-02-24T01:11:25.029Z,3.37
2019-02-24T01:13:54.045Z,4.87
2019-02-24T01:16:22.927Z,3.63
2019-02-24T01:18:51.767Z,3.00
2019-02-24T01:21:20.622Z,4.17
2019-02-24T01:23:49.487Z,4.47
2019-02-24T01:26:18.319Z,4.13
2019-02-24T01:28:47.178Z,3.17
2019-02-24T01:31:16.051Z,4.77
2019-02-24T01:33:44.887Z,4.90
2019-02-24T01:36:13.754Z,4.80
2019-02-24T01:38:42.615Z,4.73
2019-02-24T01:41:11.446Z,4.60
2019-02-24T01:43:40.315Z,3.03
2019-02-24T01:46:09.182Z,5.00
2019-02-24T01:48:38.007Z,4.40
2019-02-24T01:51:06.874Z,3.87
2019-02-24T01:53:35.743Z,4.47
2019-02-24T01:56:04.566Z,3.80
2019-02-24T01:58:35.394Z,5.70
2019-02-24T02:01:03.948Z,3.70
2019-02-24T02:03:32.775Z,3.20
2019-02-24T02:06:01.646Z,4.70
2019-02-24T02:08:30.517Z,8.90
2019-02-24T02:10:59.354Z,3.90
2019-02-24T02:13:28.215Z,3.70
2019-02-24T02:15:57.081Z,4.67
2019-02-24T02:18:25.904Z,5.43
2019-02-24T02:20:54.878Z,4.67
2019-02-24T02:23:23.731Z,4.17
2019-02-24T02:25:52.643Z,6.40
2019-02-24T02:28:21.508Z,6.37
2019-02-24T02:30:50.528Z,7.07
2019-02-24T02:33:19.421Z,4.10
2019-02-24T02:35:48.310Z,7.17
2019-02-24T02:38:17.227Z,3.50
2019-02-24T02:40:46.093Z,4.00
2019-02-24T02:43:15.009Z,3.77
2019-02-24T02:45:43.985Z,2.93
2019-02-24T02:48:12.970Z,3.67
2019-02-24T02:50:41.862Z,4.03
2019-02-24T02:53:10.753Z,4.47
2019-02-24T02:55:39.650Z,4.10
2019-02-24T02:58:08.536Z,4.17
2019-02-24T03:00:37.529Z,4.70
2019-02-24T03:03:06.422Z,3.53
2019-02-24T03:05:35.297Z,5.17
2019-02-24T03:08:47.927Z,4.73
2019-02-24T03:11:17.332Z,2.87
2019-02-24T03:13:46.223Z,3.70
2019-02-24T03:16:16.650Z,3.77
2019-02-24T03:18:45.541Z,4.50
2019-02-24T03:21:14.440Z,4.33
2019-02-24T03:23:43.323Z,4.67
2019-02-24T03:26:12.214Z,3.80
2019-02-24T03:28:41.105Z,5.63
2019-02-24T03:31:10.001Z,3.37
2019-02-24T03:33:38.888Z,3.40
2019-02-24T03:36:07.786Z,3.07
2019-02-24T03:38:36.670Z,3.90
2019-02-24T03:41:05.575Z,4.33
2019-02-24T03:43:34.555Z,3.13
2019-02-24T03:46:03.446Z,4.10
2019-02-24T03:48:32.338Z,4.67
2019-02-24T03:51:01.334Z,5.37
2019-02-24T03:53:30.196Z,2.53
2019-02-24T03:55:59.119Z,4.10
2019-02-24T03:58:28.005Z,4.47
2019-02-24T04:00:56.997Z,4.33
2019-02-24T04:03:25.838Z,4.80
2019-02-24T04:05:54.703Z,4.73
2019-02-24T04:08:23.535Z,4.60
2019-02-24T04:10:52.395Z,4.70
2019-02-24T04:13:21.279Z,4.27
2019-02-24T04:15:50.378Z,2.77
2019-02-24T04:18:19.259Z,3.80
2019-02-24T04:20:48.106Z,2.87
2019-02-24T04:23:16.942Z,3.23
2019-02-24T04:25:45.802Z,3.47
2019-02-24T04:28:14.672Z,5.13
2019-02-24T04:30:43.501Z,3.43
2019-02-24T04:33:12.370Z,3.23
2019-02-24T04:35:41.239Z,4.47
2019-02-24T04:38:10.073Z,2.73
2019-02-24T04:40:38.936Z,2.47
2019-02-24T04:43:07.802Z,3.50
2019-02-24T04:45:36.639Z,2.97
2019-02-24T04:48:05.493Z,4.53
2019-02-24T04:50:34.359Z,2.67
2019-02-24T04:53:03.195Z,2.67
2019-02-24T04:55:32.067Z,3.43
2019-02-24T04:58:00.923Z,3.40
2019-02-24T05:00:29.748Z,3.87
2019-02-24T05:02:58.630Z,3.20
2019-02-24T05:05:27.474Z,3.43
2019-02-24T05:07:56.307Z,3.30
2019-02-24T05:10:25.171Z,4.77
2019-02-24T05:12:54.036Z,2.90
2019-02-24T05:15:22.867Z,4.67
2019-02-24T05:17:51.726Z,3.10
2019-02-24T05:20:20.598Z,3.50
2019-02-24T05:22:49.423Z,5.40
2019-02-24T05:25:18.291Z,3.23
2019-02-24T05:27:47.164Z,4.60
2019-02-24T05:30:15.983Z,2.77
2019-02-24T05:32:44.854Z,4.73
2019-02-24T05:35:13.715Z,6.27
2019-02-24T05:37:42.542Z,2.87
2019-02-24T05:40:11.419Z,4.60
2019-02-24T05:42:42.422Z,4.30
2019-02-24T05:45:10.754Z,3.60
2019-02-24T05:47:39.623Z,3.87
2019-02-24T05:50:08.483Z,3.30
2019-02-24T05:52:37.319Z,3.57
2019-02-24T05:55:07.098Z,3.37
2019-02-24T05:57:35.963Z,4.43
2019-02-24T06:00:05.695Z,4.27
2019-02-24T06:02:34.563Z,3.87
2019-02-24T06:05:03.414Z,3.83
2019-02-24T06:07:33.267Z,4.13
2019-02-24T06:10:02.217Z,3.27
2019-02-24T06:12:31.075Z,2.53
2019-02-24T06:14:59.906Z,5.10
2019-02-24T06:17:28.772Z,2.60
2019-02-24T06:19:57.647Z,3.00
2019-02-24T06:22:26.560Z,3.70
2019-02-24T06:24:55.453Z,3.40
2019-02-24T06:27:24.446Z,3.27
2019-02-24T06:29:53.335Z,4.33
2019-02-24T06:32:22.328Z,3.40
2019-02-24T06:34:51.221Z,2.83
2019-02-24T06:37:20.116Z,3.83
2019-02-24T06:39:49.005Z,4.87
2019-02-24T06:42:18.980Z,3.90
2019-02-24T06:44:48.013Z,5.07
2019-02-24T06:47:16.905Z,2.73
2019-02-24T06:49:45.798Z,5.10
2019-02-24T06:52:14.688Z,4.13
2019-02-24T06:54:43.585Z,3.33
2019-02-24T06:57:12.443Z,3.23
2019-02-24T06:59:41.463Z,3.43
2019-02-24T07:02:10.354Z,4.00
2019-02-24T07:04:39.245Z,2.80
2019-02-24T07:07:08.137Z,4.20
2019-02-24T07:09:37.029Z,3.50
2019-02-24T07:12:05.918Z,5.00
2019-02-24T07:14:34.811Z,4.97
2019-02-24T07:17:03.708Z,3.83
2019-02-24T07:19:32.593Z,5.67
2019-02-24T07:22:01.483Z,4.60
2019-02-24T07:24:30.376Z,4.00
2019-02-24T07:26:59.238Z,4.03
2019-02-24T07:29:28.155Z,3.27
2019-02-24T07:31:57.149Z,5.57
2019-02-24T07:34:26.042Z,4.80
2019-02-24T07:36:54.907Z,4.80
2019-02-24T07:39:23.824Z,4.00
2019-02-24T07:41:52.720Z,4.57
2019-02-24T07:44:21.579Z,5.07
2019-02-24T07:46:50.471Z,4.17
2019-02-24T07:49:19.388Z,4.40
2019-02-24T07:51:48.277Z,4.90
2019-02-24T07:54:17.184Z,3.63
2019-02-24T07:56:46.035Z,4.90
2019-02-24T07:59:14.955Z,3.70
2019-02-24T08:01:45.688Z,3.53
2019-02-24T08:04:14.371Z,4.47
2019-02-24T08:06:43.266Z,3.87
2019-02-24T08:09:12.160Z,5.00
2019-02-24T08:11:41.049Z,4.57
2019-02-24T08:14:09.846Z,4.57
2019-02-24T08:16:38.716Z,5.53
2019-02-24T08:19:07.594Z,5.00
2019-02-24T08:21:36.420Z,4.63
2019-02-24T08:24:05.287Z,3.87
2019-02-24T08:26:34.171Z,3.87
2019-02-24T08:29:02.996Z,5.27
2019-02-24T08:31:31.855Z,5.83
2019-02-24T08:34:00.748Z,3.00
2019-02-24T08:36:29.599Z,5.40
2019-02-24T08:38:58.467Z,4.43
2019-02-24T08:41:27.339Z,4.23
2019-02-24T08:43:56.175Z,3.67
2019-02-24T08:46:25.044Z,4.73
2019-02-24T08:48:53.918Z,4.93
2019-02-24T08:51:23.428Z,5.07
2019-02-24T08:53:52.402Z,4.97
2019-02-24T08:56:21.259Z,4.20
2019-02-24T08:58:50.079Z,5.03
2019-02-24T09:01:18.967Z,4.27
2019-02-24T09:03:47.835Z,3.03
2019-02-24T09:06:16.660Z,4.03
2019-02-24T09:08:45.532Z,4.67
2019-02-24T09:11:14.391Z,3.43
2019-02-24T09:13:51.754Z,3.73
2019-02-24T09:16:20.623Z,4.13
2019-02-24T09:18:49.448Z,4.73
2019-02-24T09:21:18.333Z,5.13
2019-02-24T09:23:47.202Z,4.53
2019-02-24T09:26:16.027Z,6.70
2019-02-24T09:28:44.885Z,6.47
2019-02-24T09:31:13.752Z,3.93
2019-02-24T09:33:42.583Z,5.00
2019-02-24T09:36:11.444Z,4.10
2019-02-24T09:38:40.383Z,4.37
2019-02-24T09:41:09.238Z,3.97
2019-02-24T09:43:38.071Z,4.80
2019-02-24T09:46:06.948Z,4.70
2019-02-24T09:48:35.771Z,5.23
2019-02-24T09:51:04.727Z,3.37
2019-02-24T09:53:33.691Z,3.97
2019-02-24T09:56:02.504Z,4.17
2019-02-24T09:58:31.367Z,3.67
2019-02-24T10:01:00.278Z,3.83
2019-02-24T10:03:29.113Z,3.77
2019-02-24T10:05:58.117Z,5.10
2019-02-24T10:08:27.088Z,4.57
2019-02-24T10:10:56.036Z,4.50
2019-02-24T10:13:25.001Z,4.23
2019-02-24T10:15:54.009Z,4.93
2019-02-24T10:18:22.922Z,4.53
2019-02-24T10:20:51.916Z,4.13
2019-02-24T10:23:20.917Z,4.27
2019-02-24T10:25:49.832Z,4.77
2019-02-24T10:28:18.819Z,4.63
2019-02-24T10:30:47.765Z,3.43
2019-02-24T10:33:16.706Z,4.63
2019-02-24T10:35:45.661Z,5.23
2019-02-24T10:38:20.837Z,4.47
2019-02-24T10:40:49.689Z,3.17
2019-02-24T10:43:18.715Z,4.10
2019-02-24T10:45:47.647Z,4.00
2019-02-24T10:48:16.617Z,4.30
2019-02-24T10:50:45.602Z,4.73
2019-02-24T10:53:14.501Z,3.77
2019-02-24T10:55:43.486Z,4.47
2019-02-24T10:58:12.473Z,4.30
2019-02-24T11:00:41.489Z,5.37
2019-02-24T11:03:10.424Z,4.53
2019-02-24T11:05:39.412Z,3.50
2019-02-24T11:08:08.318Z,3.73
2019-02-24T11:10:37.269Z,3.60
2019-02-24T11:13:06.232Z,6.23
2019-02-24T11:15:35.134Z,4.00
2019-02-24T11:18:04.125Z,4.50
2019-02-24T11:20:33.113Z,4.80
2019-02-24T11:23:02.003Z,5.10
2019-02-24T11:25:30.996Z,3.63
2019-02-24T11:28:00.190Z,4.60
2019-02-24T11:30:29.340Z,4.83
2019-02-24T11:32:58.439Z,3.80
2019-02-24T11:35:27.429Z,4.37
2019-02-24T11:37:56.338Z,3.57
2019-02-24T11:40:25.310Z,4.10
2019-02-24T11:42:54.266Z,4.63
2019-02-24T11:45:23.074Z,4.93
2019-02-24T11:47:57.882Z,6.00
2019-02-24T11:50:26.853Z,3.80
2019-02-24T11:52:55.784Z,6.83
2019-02-24T11:55:24.745Z,7.40
2019-02-24T11:57:53.683Z,4.93
2019-02-24T12:00:22.686Z,5.03
2019-02-24T12:02:51.653Z,5.57
2019-02-24T12:05:20.562Z,6.57
2019-02-24T12:07:49.486Z,4.40
2019-02-24T12:10:18.451Z,8.13
2019-02-24T12:12:47.432Z,4.00
2019-02-24T12:15:16.338Z,4.90
2019-02-24T12:17:45.267Z,3.40
2019-02-24T12:20:15.017Z,4.50
2019-02-24T12:22:43.931Z,4.93
2019-02-24T12:25:12.779Z,4.43
2019-02-24T12:27:41.817Z,5.67
2019-02-24T12:30:12.810Z,4.10
2019-02-24T12:32:41.788Z,7.57
2019-02-24T12:35:10.878Z,4.53
2019-02-24T12:37:39.824Z,5.20
2019-02-24T12:40:10.405Z,4.80
2019-02-24T12:42:39.395Z,4.63
2019-02-24T12:45:09.847Z,3.97
2019-02-24T12:47:38.885Z,5.33
2019-02-24T12:50:13.859Z,4.57
2019-02-24T12:52:42.745Z,5.77
2019-02-24T12:55:11.776Z,4.40
2019-02-24T12:57:41.102Z,5.17
2019-02-24T13:00:24.250Z,4.57
2019-02-24T13:02:53.169Z,5.00
2019-02-24T13:05:22.109Z,4.10
2019-02-24T13:07:51.083Z,5.10
2019-02-24T13:10:20.424Z,3.63
2019-02-24T13:12:49.469Z,4.10
2019-02-24T13:15:18.463Z,3.70
2019-02-24T13:17:47.500Z,5.07
2019-02-24T13:20:16.465Z,5.80
2019-02-24T13:22:45.556Z,6.00
2019-02-24T13:25:14.792Z,4.83
2019-02-24T13:27:43.716Z,5.23
2019-02-24T13:30:15.841Z,4.57
2019-02-24T13:32:44.742Z,3.93
2019-02-24T13:35:13.912Z,6.23
2019-02-24T13:37:42.759Z,3.83
2019-02-24T13:40:14.021Z,3.37
2019-02-24T13:42:42.942Z,4.30
2019-02-24T13:45:19.414Z,3.57
2019-02-24T13:47:48.407Z,4.20
2019-02-24T13:50:17.431Z,3.77
2019-02-24T13:52:46.401Z,4.00
2019-02-24T13:55:16.078Z,4.40
2019-02-24T13:57:44.924Z,3.70
2019-02-24T14:00:16.847Z,4.30
2019-02-24T14:02:45.777Z,4.97
2019-02-24T14:05:14.777Z,3.70
2019-02-24T14:07:47.101Z,4.17
2019-02-24T14:10:16.088Z,5.13
2019-02-24T14:12:45.013Z,3.47
2019-02-24T14:15:17.099Z,4.17
2019-02-24T14:17:46.024Z,4.73
2019-02-24T14:20:17.179Z,4.60
2019-02-24T14:22:46.065Z,4.33
2019-02-24T14:25:16.012Z,3.60
2019-02-24T14:27:44.932Z,4.83
2019-02-24T14:30:17.818Z,4.07
2019-02-24T14:32:46.717Z,4.37
2019-02-24T14:35:17.866Z,4.77
2019-02-24T14:37:46.791Z,3.97
2019-02-24T14:40:15.789Z,4.40
2019-02-24T14:42:46.181Z,3.60
2019-02-24T14:45:17.371Z,3.77
2019-02-24T14:47:46.294Z,4.90
2019-02-24T14:50:15.195Z,2.97
2019-02-24T14:52:44.219Z,3.13
2019-02-24T14:55:14.160Z,3.97
2019-02-24T14:57:43.111Z,4.37
2019-02-24T15:00:19.809Z,3.70
2019-02-24T15:02:48.808Z,4.27
2019-02-24T15:05:17.717Z,5.53
2019-02-24T15:07:46.790Z,5.23
2019-02-24T15:10:18.097Z,4.43
2019-02-24T15:12:47.185Z,5.10
2019-02-24T15:15:21.028Z,5.80
2019-02-24T15:17:50.062Z,3.80
2019-02-24T15:20:20.384Z,4.47
2019-02-24T15:22:49.366Z,5.50
2019-02-24T15:25:18.780Z,7.97
2019-02-24T15:27:47.769Z,4.70
2019-02-24T15:30:19.624Z,6.70
2019-02-24T15:32:51.721Z,5.30
2019-02-24T15:35:19.364Z,5.60
2019-02-24T15:37:48.292Z,5.80
2019-02-24T15:40:17.265Z,5.50
2019-02-24T15:42:48.938Z,7.37
2019-02-24T15:45:18.075Z,4.53
2019-02-24T15:47:47.066Z,5.07
2019-02-24T15:50:16.101Z,4.00
2019-02-24T15:52:45.149Z,3.40
2019-02-24T15:55:15.719Z,4.23
2019-02-24T15:57:44.699Z,3.97
2019-02-24T16:00:16.380Z,4.53
2019-02-24T16:02:45.444Z,4.50
2019-02-24T16:05:14.440Z,4.37
2019-02-24T16:07:43.416Z,4.80
2019-02-24T16:10:17.254Z,3.87
2019-02-24T16:12:46.224Z,4.00
2019-02-24T16:15:17.272Z,4.27
2019-02-24T16:17:46.311Z,5.63
2019-02-24T16:20:21.192Z,4.27
2019-02-24T16:22:50.457Z,5.27
2019-02-24T16:25:20.184Z,4.43
2019-02-24T16:27:49.218Z,4.30
2019-02-24T16:30:18.226Z,4.83
2019-02-24T16:32:47.126Z,3.57
2019-02-24T16:35:17.479Z,6.50
2019-02-24T16:37:52.190Z,4.63
2019-02-24T16:40:28.815Z,4.03
2019-02-24T16:42:57.724Z,4.83
2019-02-24T16:45:26.710Z,5.67
2019-02-24T16:47:55.621Z,5.03
2019-02-24T16:50:25.304Z,5.20
2019-02-24T16:52:54.235Z,3.67
2019-02-24T16:55:23.237Z,4.83
2019-02-24T16:57:52.161Z,4.90
2019-02-24T17:00:25.048Z,4.27
2019-02-24T17:02:53.982Z,4.53
2019-02-24T17:05:23.045Z,3.87
2019-02-24T17:07:52.030Z,4.33
2019-02-24T17:10:22.963Z,5.77
2019-02-24T17:12:51.911Z,3.20
2019-02-24T17:15:21.016Z,5.67
2019-02-24T17:17:50.005Z,4.27
2019-02-24T17:20:21.248Z,4.87
2019-02-24T17:22:50.234Z,4.00
2019-02-24T17:25:19.249Z,5.17
2019-02-24T17:27:48.202Z,4.77
2019-02-24T17:30:17.765Z,5.63
2019-02-24T17:32:46.736Z,4.10
2019-02-24T17:35:15.975Z,4.90
2019-02-24T17:37:44.990Z,4.67
2019-02-24T17:40:19.498Z,5.90
2019-02-24T17:42:48.765Z,5.33
2019-02-24T17:45:17.773Z,4.77
2019-02-24T17:47:57.602Z,6.80
2019-02-24T17:50:26.688Z,8.07
2019-02-24T17:52:55.704Z,9.57
2019-02-24T17:55:24.866Z,9.03
2019-02-24T17:57:53.882Z,7.40
2019-02-24T18:00:31.847Z,7.53
2019-02-24T18:03:01.514Z,7.23
2019-02-24T18:05:30.604Z,7.23
2019-02-24T18:07:59.685Z,8.30
2019-02-24T18:10:28.602Z,7.97
2019-02-24T18:12:57.596Z,7.97
2019-02-24T18:15:26.478Z,8.90
2019-02-24T18:17:55.452Z,7.97
2019-02-24T18:20:24.365Z,6.97
2019-02-24T18:22:53.346Z,10.50
2019-02-24T18:25:22.252Z,9.70
2019-02-24T18:27:51.236Z,12.63
2019-02-24T18:30:22.818Z,9.97
2019-02-24T18:32:51.747Z,13.53
2019-02-24T18:35:20.710Z,10.97
2019-02-24T18:37:49.687Z,15.63
2019-02-24T18:40:30.620Z,12.30
2019-02-24T18:43:00.674Z,13.73
2019-02-24T18:45:29.944Z,10.70
2019-02-24T18:47:58.819Z,10.53
2019-02-24T18:50:27.762Z,10.60
2019-02-24T18:52:56.740Z,11.40
2019-02-24T18:55:25.646Z,10.40
2019-02-24T18:57:54.611Z,11.77
2019-02-24T19:00:24.112Z,11.13
2019-02-24T19:02:54.914Z,9.60
2019-02-24T19:05:23.680Z,7.37
2019-02-24T19:07:52.643Z,9.53
2019-02-24T19:10:22.755Z,6.50
2019-02-24T19:12:51.791Z,6.27
2019-02-24T19:15:25.032Z,8.40
2019-02-24T19:17:56.653Z,7.13
2019-02-24T19:20:26.247Z,7.20
2019-02-24T19:22:55.202Z,8.07
2019-02-24T19:25:24.170Z,5.60
2019-02-24T19:27:54.550Z,6.60
2019-02-24T19:30:26.415Z,7.13
2019-02-24T19:32:56.932Z,4.87
2019-02-24T19:35:25.914Z,6.17
2019-02-24T19:37:56.816Z,4.40
2019-02-24T19:40:25.783Z,5.33
2019-02-24T19:42:54.670Z,8.70
2019-02-24T19:45:27.549Z,7.17
2019-02-24T19:47:56.443Z,5.97
2019-02-24T19:50:25.428Z,6.03
2019-02-24T19:52:54.262Z,5.77
2019-02-24T19:55:23.390Z,6.33
2019-02-24T19:57:52.451Z,7.27
2019-02-24T20:00:27.613Z,5.50
2019-02-24T20:02:56.615Z,7.10
2019-02-24T20:05:25.597Z,6.23
2019-02-24T20:07:54.540Z,8.57
2019-02-24T20:10:25.215Z,6.43
2019-02-24T20:12:54.211Z,5.60
2019-02-24T20:15:23.186Z,5.33
2019-02-24T20:17:52.188Z,5.57
2019-02-24T20:20:21.108Z,6.20
2019-02-24T20:22:50.048Z,6.17
2019-02-24T20:25:23.457Z,5.90
2019-02-24T20:27:52.489Z,6.00
2019-02-24T20:30:26.915Z,8.47
2019-02-24T20:32:55.864Z,6.83
2019-02-24T20:35:24.796Z,6.37
2019-02-24T20:37:53.803Z,7.60
2019-02-24T20:40:22.799Z,6.93
2019-02-24T20:42:51.643Z,7.03
2019-02-24T20:45:21.817Z,8.73
2019-02-24T20:47:50.894Z,7.73
2019-02-24T20:50:21.915Z,7.03
2019-02-24T20:52:50.891Z,8.23
2019-02-24T20:55:19.774Z,8.73
2019-02-24T20:57:48.800Z,9.30
2019-02-24T21:00:20.718Z,12.70
2019-02-24T21:02:49.688Z,11.90
2019-02-24T21:05:18.602Z,11.00
2019-02-24T21:07:47.588Z,10.33
2019-02-24T21:10:16.725Z,12.13
2019-02-24T21:12:46.655Z,12.90
2019-02-24T21:15:17.169Z,11.93
2019-02-24T21:17:46.128Z,6.57
2019-02-24T21:20:23.645Z,8.23
2019-02-24T21:23:01.664Z,9.63
2019-02-24T21:25:46.828Z,7.50
2019-02-24T21:28:19.126Z,7.57
2019-02-24T21:30:47.953Z,5.73
2019-02-24T21:33:16.874Z,5.63
2019-02-24T21:35:46.604Z,4.70
2019-02-24T21:38:15.659Z,5.47
2019-02-24T21:40:44.534Z,6.13
2019-02-24T21:43:13.512Z,10.07
2019-02-24T21:45:42.428Z,5.57
2019-02-24T21:48:11.462Z,5.90
2019-02-24T21:50:40.326Z,6.93
2019-02-24T21:53:09.674Z,5.53
2019-02-24T21:55:38.641Z,6.80
2019-02-24T21:58:07.775Z,5.83
2019-02-24T22:00:37.163Z,4.50
2019-02-24T22:03:06.234Z,6.23
2019-02-24T22:05:35.140Z,4.83
2019-02-24T22:08:04.113Z,4.70
2019-02-24T22:10:33.034Z,4.87
2019-02-24T22:13:02.005Z,6.50
2019-02-24T22:15:30.920Z,5.37
2019-02-24T22:17:59.835Z,7.33
2019-02-24T22:20:28.791Z,5.03
2019-02-24T22:23:03.928Z,5.30
2019-02-24T22:25:32.896Z,6.70
2019-02-24T22:28:01.809Z,5.33
2019-02-24T22:30:30.784Z,9.07
2019-02-24T22:32:59.691Z,5.00
2019-02-24T22:35:28.645Z,5.17
2019-02-24T22:37:57.573Z,7.07
2019-02-24T22:40:26.555Z,6.67
2019-02-24T22:42:55.464Z,5.53
2019-02-24T22:45:24.424Z,5.40
2019-02-24T22:47:53.311Z,5.40
2019-02-24T22:50:22.290Z,5.30
2019-02-24T22:52:51.200Z,6.30
2019-02-24T22:55:20.351Z,5.50
2019-02-24T22:57:49.251Z,5.40
2019-02-24T23:00:52.959Z,5.47
2019-02-24T23:03:23.460Z,6.93
2019-02-24T23:05:52.767Z,6.63
2019-02-24T23:08:21.872Z,5.57
2019-02-24T23:10:51.791Z,7.03
2019-02-24T23:13:20.880Z,6.27
2019-02-24T23:15:49.984Z,6.83
2019-02-24T23:18:19.074Z,6.80
2019-02-24T23:20:48.175Z,6.47
2019-02-24T23:23:17.264Z,5.73
2019-02-24T23:25:46.360Z,8.57
2019-02-24T23:28:15.464Z,7.33
2019-02-24T23:30:44.553Z,5.97
2019-02-24T23:33:13.655Z,5.00
2019-02-24T23:35:42.746Z,5.70
2019-02-24T23:38:11.849Z,7.33
2019-02-24T23:40:41.042Z,5.00
2019-02-24T23:43:10.136Z,6.37
2019-02-24T23:45:39.338Z,6.90
2019-02-24T23:48:08.436Z,8.20
2019-02-24T23:50:37.525Z,8.97
2019-02-24T23:53:06.620Z,6.53
2019-02-24T23:55:35.725Z,7.57
2019-02-24T23:58:04.818Z,7.33
